Time;durP1;ratioP1;P1;durP2;ratioP2;P2;SDS_P1;SDS_P2;PMS_P1;PMS_P2;Temp;Humidity;BMP_temperature;BMP_pressure;BME280_temperature;BME280_humidity;BME280_pressure;Samples;Min_cycle;Max_cycle;Signal;HPM_P1;HPM_P2
2022/12/04 00:00:55;;;;;;;82.53;24.75;;;;;;;0.83;89.72;101750.34;5037814;28;20022;-62
2022/12/04 00:03:20;;;;;;;77.60;24.23;;;;;;;0.86;89.73;101748.00;5037995;28;20049;-62
2022/12/04 00:05:45;;;;;;;75.25;24.45;;;;;;;0.88;90.00;101737.84;5028733;28;20419;-62
2022/12/04 00:08:11;;;;;;;76.50;23.98;;;;;;;0.87;89.83;101736.97;5026332;28;20045;-67
2022/12/04 00:10:41;;;;;;;78.78;25.27;;;;;;;0.85;90.22;101735.94;5023102;28;20037;-67
2022/12/04 00:13:06;;;;;;;71.78;24.00;;;;;;;0.84;89.69;101741.84;5026149;28;20177;-67
2022/12/04 00:15:32;;;;;;;74.82;24.73;;;;;;;0.85;90.21;101733.38;5023565;28;20028;-67
2022/12/04 00:17:57;;;;;;;75.70;24.17;;;;;;;0.84;90.43;101737.63;5021572;28;20029;-67
2022/12/04 00:20:22;;;;;;;77.97;24.95;;;;;;;0.84;90.10;101726.44;5023488;28;20162;-67
2022/12/04 00:22:47;;;;;;;70.65;23.80;;;;;;;0.85;90.14;101725.69;5028068;28;20163;-67
2022/12/04 00:25:13;;;;;;;81.93;25.08;;;;;;;0.84;89.83;101726.44;5029448;28;20050;-67
2022/12/04 00:27:38;;;;;;;79.63;23.75;;;;;;;0.84;89.63;101726.44;5024921;28;20072;-67
2022/12/04 00:30:04;;;;;;;75.47;25.13;;;;;;;0.84;89.74;101724.81;5026559;28;20044;-67
2022/12/04 00:32:29;;;;;;;73.60;24.70;;;;;;;0.85;90.07;101728.25;5023727;28;20037;-67
2022/12/04 00:34:54;;;;;;;76.05;24.17;;;;;;;0.84;90.06;101729.94;5024301;28;20034;-67
2022/12/04 00:37:20;;;;;;;76.20;25.30;;;;;;;0.84;90.07;101731.56;5038699;28;20037;-67
2022/12/04 00:39:45;;;;;;;81.63;25.50;;;;;;;0.82;90.31;101728.91;5035381;28;20288;-67
2022/12/04 00:42:10;;;;;;;73.70;24.80;;;;;;;0.82;89.55;101731.47;5028860;28;20103;-67
2022/12/04 00:44:35;;;;;;;80.63;23.98;;;;;;;0.81;90.13;101724.56;5031140;28;20274;-67
2022/12/04 00:47:01;;;;;;;73.88;23.88;;;;;;;0.82;90.19;101720.31;5034547;28;20025;-67
2022/12/04 00:49:26;;;;;;;66.47;23.70;;;;;;;0.84;90.76;101718.75;5037729;28;20021;-67
2022/12/04 00:51:51;;;;;;;69.80;25.40;;;;;;;0.84;90.04;101714.53;5037255;28;20092;-67
2022/12/04 00:54:16;;;;;;;79.82;24.90;;;;;;;0.83;90.70;101715.31;5035711;28;20029;-67
2022/12/04 00:56:42;;;;;;;75.75;24.23;;;;;;;0.79;89.61;101720.97;5033225;28;20091;-67
2022/12/04 00:59:09;;;;;;;70.00;23.40;;;;;;;0.76;89.79;101723.31;5028048;28;20109;-67
2022/12/04 01:01:34;;;;;;;81.70;25.42;;;;;;;0.76;89.92;101718.16;5036862;28;20247;-67
2022/12/04 01:04:00;;;;;;;74.45;24.42;;;;;;;0.76;90.17;101715.59;5038990;28;20333;-67
2022/12/04 01:06:29;;;;;;;72.18;24.45;;;;;;;0.77;90.31;101722.53;5037901;28;20030;-62
2022/12/04 01:08:55;;;;;;;77.32;24.08;;;;;;;0.76;90.17;101733.56;5035308;28;20052;-62
2022/12/04 01:11:22;;;;;;;72.78;23.00;;;;;;;0.74;90.17;101724.88;5022419;28;20113;-63
2022/12/04 01:13:48;;;;;;;75.47;24.23;;;;;;;0.72;89.84;101731.53;5039103;28;20175;-62
2022/12/04 01:16:21;;;;;;;73.00;26.13;;;;;;;0.70;90.59;101735.66;5033024;28;20263;-62
2022/12/04 01:18:46;;;;;;;82.78;25.05;;;;;;;0.71;90.45;101726.28;5036178;28;20033;-62
2022/12/04 01:21:12;;;;;;;78.43;24.80;;;;;;;0.72;90.07;101735.78;5041356;28;20032;-62
2022/12/04 01:23:37;;;;;;;73.38;24.08;;;;;;;0.69;90.04;101739.00;5031167;28;20097;-62
2022/12/04 01:26:03;;;;;;;71.80;23.23;;;;;;;0.68;90.50;101734.63;5031967;28;20037;-62
2022/12/04 01:28:28;;;;;;;85.82;24.98;;;;;;;0.71;90.64;101739.09;5036216;28;20028;-62
2022/12/04 01:31:05;;;;;;;67.75;22.70;;;;;;;0.71;91.01;101745.16;5034471;28;20021;-62
2022/12/04 01:33:32;;;;;;;73.85;24.55;;;;;;;0.72;90.67;101736.66;5035220;28;20089;-62
2022/12/04 01:35:59;;;;;;;73.40;25.48;;;;;;;0.72;90.81;101735.78;5023021;28;20081;-62
2022/12/04 01:38:25;;;;;;;79.63;23.98;;;;;;;0.67;90.03;101741.44;5033822;28;20033;-62
2022/12/04 01:40:50;;;;;;;68.15;23.02;;;;;;;0.67;90.76;101743.13;5029411;28;20315;-62
2022/12/04 01:43:17;;;;;;;76.35;24.95;;;;;;;0.68;90.10;101735.53;5028295;28;20049;-62
2022/12/04 01:45:49;;;;;;;68.72;23.45;;;;;;;0.68;90.93;101729.50;5031198;28;20045;-62
2022/12/04 01:48:23;;;;;;;78.30;24.00;;;;;;;0.66;91.11;101731.94;5037680;28;20171;-62
2022/12/04 01:50:52;;;;;;;72.55;24.58;;;;;;;0.67;91.67;101731.19;5032270;28;20030;-62
2022/12/04 01:53:18;;;;;;;;;;;;;;;0.72;90.69;101720.38;5041847;28;20062;-62
2022/12/04 01:55:45;;;;;;;74.65;23.25;;;;;;;0.65;90.25;101725.06;5040208;28;19951;-62
2022/12/04 01:58:11;;;;;;;76.93;24.08;;;;;;;0.65;90.93;101716.44;5038303;28;20032;-63
2022/12/04 02:00:36;;;;;;;73.55;23.98;;;;;;;0.67;90.77;101717.47;5040577;28;20021;-62
2022/12/04 02:03:01;;;;;;;76.93;24.10;;;;;;;0.71;90.39;101713.47;5030150;28;20101;-62
2022/12/04 02:05:27;;;;;;;74.93;25.05;;;;;;;0.71;90.88;101714.38;5038662;28;20021;-62
2022/12/04 02:07:58;;;;;;;81.15;23.65;;;;;;;0.71;90.71;101718.59;5040179;28;20040;-67
2022/12/04 02:10:38;;;;;;;71.70;22.98;;;;;;;0.68;90.93;101716.66;5041536;28;20060;-67
2022/12/04 02:13:07;;;;;;;73.00;24.48;;;;;;;0.68;90.49;101717.59;5033230;28;20041;-67
2022/12/04 02:15:48;;;;;;;72.78;24.02;;;;;;;0.69;90.43;101716.78;5038789;28;20033;-67
2022/12/04 02:18:56;;;;;;;71.25;24.60;;;;;;;0.70;90.50;101715.13;5028915;28;20018;-67
2022/12/04 02:21:36;;;;;;;76.45;24.63;;;;;;;0.68;90.35;101719.25;5032532;28;20036;-67
2022/12/04 02:24:41;;;;;;;75.18;23.52;;;;;;;0.69;90.84;101715.91;5037045;28;20068;-67
2022/12/04 02:27:22;;;;;;;77.25;25.75;;;;;;;0.69;90.92;101709.09;4962115;28;20137;-67
2022/12/04 02:29:55;;;;;;;78.75;23.10;;;;;;;0.68;90.04;101720.16;5025604;28;20022;-67
2022/12/04 02:32:28;;;;;;;74.28;24.10;;;;;;;0.64;90.79;101718.13;5021058;28;20021;-67
2022/12/04 02:35:27;;;;;;;68.38;23.48;;;;;;;0.63;90.89;101713.75;5026133;28;20184;-67
2022/12/04 02:38:10;;;;;;;72.03;24.20;;;;;;;0.66;90.06;101713.09;5004797;28;20103;-62
2022/12/04 02:40:57;;;;;;;76.82;25.58;;;;;;;0.69;90.72;101714.22;5021309;28;20037;-62
2022/12/04 02:43:41;;;;;;;69.57;24.00;;;;;;;0.69;90.64;101705.66;5028083;28;20028;-62
2022/12/04 02:46:14;;;;;;;77.28;24.70;;;;;;;0.65;90.15;101713.88;5036614;28;20148;-62
2022/12/04 02:48:42;;;;;;;77.32;24.38;;;;;;;0.64;90.29;101710.44;5033934;28;20049;-62
2022/12/04 02:51:13;;;;;;;74.35;24.45;;;;;;;0.65;90.33;101706.19;5022654;28;20029;-62
2022/12/04 02:53:43;;;;;;;76.82;24.63;;;;;;;0.62;90.05;101700.81;5023337;28;20028;-61
2022/12/04 02:56:13;;;;;;;75.38;24.25;;;;;;;0.60;89.88;101703.25;5039073;28;20036;-62
2022/12/04 02:58:51;;;;;;;70.85;23.90;;;;;;;0.62;90.74;101699.16;5028713;28;20029;-62
2022/12/04 03:01:22;;;;;;;79.28;26.05;;;;;;;0.66;90.68;101695.16;5028196;28;20049;-62
2022/12/04 03:04:16;;;;;;;78.95;26.10;;;;;;;0.69;90.48;101695.38;5032212;28;20029;-62
2022/12/04 03:06:45;;;;;;;72.20;24.73;;;;;;;0.66;89.99;101684.91;5020923;28;20084;-62
2022/12/04 03:09:40;;;;;;;86.23;25.77;;;;;;;0.65;90.71;101693.34;5027178;28;20044;-62
2022/12/04 03:12:08;;;;;;;77.65;25.70;;;;;;;0.66;89.87;101697.72;5034614;28;20117;-62
2022/12/04 03:14:39;;;;;;;76.63;25.00;;;;;;;0.66;89.94;101700.28;5013626;28;20102;-62
2022/12/04 03:17:11;;;;;;;81.05;25.15;;;;;;;0.63;90.68;101702.63;5024334;28;20032;-62
2022/12/04 03:19:44;;;;;;;77.80;25.08;;;;;;;0.59;90.88;101698.91;5032206;28;20038;-62
2022/12/04 03:22:13;;;;;;;75.90;25.35;;;;;;;0.59;91.03;101705.72;5039082;28;20128;-62
2022/12/04 03:24:51;;;;;;;81.85;24.88;;;;;;;0.60;90.18;101702.38;5040521;28;20089;-62
2022/12/04 03:27:59;;;;;;;77.00;25.25;;;;;;;0.59;90.93;101695.47;5039113;28;20334;-62
2022/12/04 03:30:25;;;;;;;82.20;27.10;;;;;;;0.59;91.33;101696.34;5023602;28;20160;-62
2022/12/04 03:33:14;;;;;;;78.05;24.25;;;;;;;0.57;90.69;101694.47;5026208;28;20261;-62
2022/12/04 03:35:54;;;;;;;76.20;24.77;;;;;;;0.56;90.13;101696.09;5036553;28;20100;-62
2022/12/04 03:38:28;;;;;;;77.28;24.13;;;;;;;0.56;90.46;101688.41;5034927;28;20097;-62
2022/12/04 03:41:09;;;;;;;79.25;25.83;;;;;;;0.55;91.06;101693.44;5041195;28;20100;-62
2022/12/04 03:43:41;;;;;;;79.80;25.52;;;;;;;0.51;91.25;101684.63;5040426;28;20279;-62
2022/12/04 03:46:28;;;;;;;76.85;24.98;;;;;;;0.50;90.80;101683.69;5033704;28;20056;-62
2022/12/04 03:49:08;;;;;;;77.40;25.38;;;;;;;0.51;90.30;101685.50;5034345;28;20078;-62
2022/12/04 03:51:49;;;;;;;84.25;25.60;;;;;;;0.53;91.43;101677.91;5030136;28;20045;-62
2022/12/04 03:54:19;;;;;;;74.43;26.42;;;;;;;0.54;90.69;101684.84;5043309;28;20045;-62
2022/12/04 03:56:53;;;;;;;85.40;25.90;;;;;;;0.54;90.96;101686.50;5034338;28;20033;-62
2022/12/04 03:59:27;;;;;;;79.95;26.30;;;;;;;0.52;90.95;101691.50;5028842;28;20029;-62
2022/12/04 04:01:56;;;;;;;81.57;26.08;;;;;;;0.54;90.96;101683.94;5033790;28;20025;-62
2022/12/04 04:04:31;;;;;;;79.15;27.15;;;;;;;0.54;90.89;101689.97;5025826;28;20093;-62
2022/12/04 04:07:03;;;;;;;76.30;24.40;;;;;;;0.53;91.41;101683.06;5027116;28;20026;-62
2022/12/04 04:09:35;;;;;;;82.45;25.98;;;;;;;0.54;91.04;101678.81;5039448;28;20172;-62
2022/12/04 04:12:10;;;;;;;81.88;26.88;;;;;;;0.53;91.31;101680.50;5032350;28;20195;-61
2022/12/04 04:25:57;;;;;;;76.80;25.58;;;;;;;0.54;90.95;101684.84;5038351;28;20089;-67
2022/12/04 04:28:35;;;;;;;84.43;25.73;;;;;;;0.54;91.22;101679.72;5034475;28;20117;-67
2022/12/04 04:31:35;;;;;;;79.80;24.05;;;;;;;0.54;90.75;101673.69;5039040;28;20041;-67
2022/12/04 04:34:35;;;;;;;83.07;25.52;;;;;;;0.54;90.50;101677.16;5013908;28;20030;-67
2022/12/04 04:37:18;;;;;;;90.80;26.85;;;;;;;0.51;90.80;101674.34;5026638;28;20065;-67
2022/12/04 04:39:55;;;;;;;84.35;25.40;;;;;;;0.54;91.32;101681.38;5035241;28;20025;-67
2022/12/04 04:42:23;;;;;;;84.78;26.27;;;;;;;0.55;91.12;101678.03;5035381;28;20037;-67
2022/12/04 04:44:57;;;;;;;78.43;25.52;;;;;;;0.56;90.76;101675.59;5034481;28;20046;-67
2022/12/04 04:47:36;;;;;;;85.13;25.42;;;;;;;0.56;91.12;101682.41;5032904;28;20034;-62
2022/12/04 04:50:06;;;;;;;78.55;26.70;;;;;;;0.56;91.17;101678.16;5028776;28;20022;-62
2022/12/04 04:52:32;;;;;;;82.25;27.05;;;;;;;0.57;90.84;101681.63;5034224;28;20029;-62
2022/12/04 04:54:59;;;;;;;80.20;26.33;;;;;;;0.54;91.46;101689.97;5030601;28;20150;-63
2022/12/04 04:57:32;;;;;;;84.78;26.60;;;;;;;0.55;91.00;101678.97;5032868;28;20185;-62
2022/12/04 04:59:58;;;;;;;80.85;26.80;;;;;;;0.57;91.78;101686.75;5034412;28;20030;-62
2022/12/04 05:02:26;;;;;;;80.38;25.40;;;;;;;0.57;91.43;101679.06;5040152;28;20056;-62
2022/12/04 05:04:52;;;;;;;83.13;26.67;;;;;;;0.56;91.11;101688.41;5017033;28;20060;-62
2022/12/04 05:07:17;;;;;;;81.03;25.80;;;;;;;0.55;91.10;101690.88;5027899;28;20029;-61
2022/12/04 05:09:42;;;;;;;82.60;26.70;;;;;;;0.54;92.10;101699.31;5032176;28;20029;-62
2022/12/04 05:12:08;;;;;;;83.05;26.30;;;;;;;0.54;90.78;101691.63;5030234;28;20052;-61
2022/12/04 05:14:33;;;;;;;80.38;26.10;;;;;;;0.52;91.14;101692.44;5040240;28;20168;-62
2022/12/04 05:16:59;;;;;;;83.75;26.58;;;;;;;0.53;91.14;101693.31;5038206;28;20172;-67
2022/12/04 05:22:08;;;;;;;78.47;25.60;;;;;;;0.56;91.13;101692.66;5023103;28;20080;-67
2022/12/04 05:24:34;;;;;;;78.13;25.23;;;;;;;0.56;91.12;101687.53;5021471;28;20017;-67
2022/12/04 05:26:59;;;;;;;80.80;26.80;;;;;;;0.52;91.41;101689.88;5024664;28;20276;-67
2022/12/04 05:29:24;;;;;;;80.53;26.80;;;;;;;0.54;91.33;101687.41;5026071;28;20489;-67
2022/12/04 05:31:49;;;;;;;75.28;25.40;;;;;;;0.56;91.49;101695.22;5027098;28;20025;-67
2022/12/04 05:34:15;;;;;;;82.65;26.35;;;;;;;0.58;91.95;101688.53;5022468;28;20026;-67
2022/12/04 05:36:40;;;;;;;73.07;26.08;;;;;;;0.58;90.94;101691.09;5025545;28;20056;-67
2022/12/04 05:39:05;;;;;;;83.40;26.15;;;;;;;0.58;91.74;101686.88;5021505;28;20036;-67
2022/12/04 05:41:30;;;;;;;83.38;25.17;;;;;;;0.62;91.58;101688.91;5024068;28;20069;-67
2022/12/04 05:43:56;;;;;;;80.57;26.02;;;;;;;0.63;91.52;101684.66;5022050;28;20177;-67
2022/12/04 05:46:21;;;;;;;82.90;26.17;;;;;;;0.63;91.75;101679.53;5021288;28;20096;-67
2022/12/04 05:48:46;;;;;;;77.95;25.98;;;;;;;0.64;91.66;101676.19;5008369;28;20379;-67
2022/12/04 05:51:11;;;;;;;84.53;27.10;;;;;;;0.67;91.22;101671.31;5036628;28;20102;-67
2022/12/04 05:53:37;;;;;;;83.25;26.02;;;;;;;0.69;90.50;101672.31;5028598;28;20358;-67
2022/12/04 05:56:04;;;;;;;83.38;26.60;;;;;;;0.69;92.07;101669.75;5040624;28;20271;-67
2022/12/04 05:58:29;;;;;;;82.63;26.08;;;;;;;0.69;90.99;101674.88;5035670;28;20038;-67
2022/12/04 06:00:55;;;;;;;87.53;26.40;;;;;;;0.69;91.39;101669.75;5036035;28;20028;-67
2022/12/04 06:03:21;;;;;;;80.10;26.52;;;;;;;0.67;91.87;101667.06;5030045;28;20037;-67
2022/12/04 06:05:46;;;;;;;84.85;26.15;;;;;;;0.67;91.10;101667.06;5030541;28;20092;-67
2022/12/04 06:08:13;;;;;;;71.40;24.27;;;;;;;0.67;91.39;101673.88;5030822;28;20030;-67
2022/12/04 06:10:38;;;;;;;84.47;26.23;;;;;;;0.67;91.55;101664.50;5031433;28;20049;-67
2022/12/04 06:13:05;;;;;;;89.18;26.83;;;;;;;0.69;91.57;101667.19;5025723;28;20184;-67
2022/12/04 06:15:30;;;;;;;80.57;25.15;;;;;;;0.71;91.28;101669.84;5032645;28;20025;-67
2022/12/04 06:17:55;;;;;;;84.32;26.95;;;;;;;0.69;91.88;101659.47;5030636;28;20022;-67
2022/12/04 06:20:21;;;;;;;83.10;26.90;;;;;;;0.69;91.78;101665.50;5034918;28;20378;-67
2022/12/04 06:22:46;;;;;;;82.53;26.30;;;;;;;0.71;91.07;101669.84;5036349;28;20030;-68
2022/12/04 06:25:11;;;;;;;79.03;26.88;;;;;;;0.68;91.42;101667.94;5022567;28;20026;-67
2022/12/04 06:27:36;;;;;;;81.35;27.05;;;;;;;0.65;90.63;101662.59;5021103;28;20041;-62
2022/12/04 06:30:02;;;;;;;74.03;24.83;;;;;;;0.64;91.70;101671.97;5026736;28;20318;-62
2022/12/04 06:32:28;;;;;;;76.00;26.23;;;;;;;0.64;91.83;101668.50;5022649;28;20693;-62
2022/12/04 06:34:53;;;;;;;81.95;26.08;;;;;;;0.63;91.54;101665.03;5021108;28;20180;-62
2022/12/04 06:37:21;;;;;;;84.10;27.90;;;;;;;0.62;91.70;101670.97;5034085;28;20044;-62
2022/12/04 06:39:46;;;;;;;82.80;27.20;;;;;;;0.61;91.62;101670.81;5023522;28;20080;-62
2022/12/04 06:42:11;;;;;;;81.22;25.88;;;;;;;0.62;91.95;101672.59;5022884;28;20108;-62
2022/12/04 06:44:37;;;;;;;77.97;25.13;;;;;;;0.60;92.31;101669.94;5021237;28;20034;-62
2022/12/04 06:47:02;;;;;;;82.00;25.60;;;;;;;0.64;91.96;101671.06;5023127;28;20022;-62
2022/12/04 06:49:27;;;;;;;79.47;26.70;;;;;;;0.65;91.98;101677.97;5032707;28;20206;-62
2022/12/04 06:51:52;;;;;;;75.97;26.08;;;;;;;0.66;91.47;101674.63;5034479;28;20026;-62
2022/12/04 06:54:17;;;;;;;76.13;26.83;;;;;;;0.65;92.44;101672.84;5040432;28;20096;-61
2022/12/04 06:56:43;;;;;;;79.55;25.73;;;;;;;0.67;92.21;101671.31;5044582;28;20026;-62
2022/12/04 06:59:09;;;;;;;83.65;26.52;;;;;;;0.67;91.88;101682.44;5042947;28;20033;-62
2022/12/04 07:01:34;;;;;;;78.63;26.23;;;;;;;0.66;90.96;101682.34;5042463;28;20045;-62
2022/12/04 07:04:02;;;;;;;80.72;25.85;;;;;;;0.65;91.74;101689.16;5044883;28;20207;-62
2022/12/04 07:06:30;;;;;;;85.95;26.83;;;;;;;0.65;91.19;101688.22;5044111;28;20035;-62
2022/12/04 07:09:10;;;;;;;74.65;24.55;;;;;;;0.62;92.21;101688.91;5042679;28;20266;-62
2022/12/04 07:11:37;;;;;;;71.95;25.55;;;;;;;0.62;91.31;101688.00;5033107;28;20064;-62
2022/12/04 07:14:03;;;;;;;77.63;25.08;;;;;;;0.62;92.02;101698.25;5038645;28;20045;-62
2022/12/04 07:16:29;;;;;;;83.25;25.92;;;;;;;0.60;92.00;101695.56;5044857;28;20237;-62
2022/12/04 07:18:58;;;;;;;79.57;26.45;;;;;;;0.60;91.54;101704.94;5038903;28;20187;-62
2022/12/04 07:21:29;;;;;;;78.35;27.27;;;;;;;0.57;91.90;101697.91;5031096;28;20083;-62
2022/12/04 07:23:57;;;;;;;85.25;26.52;;;;;;;0.58;91.96;101707.41;5035490;28;20176;-62
2022/12/04 07:26:23;;;;;;;76.18;24.92;;;;;;;0.60;92.43;101712.66;5039603;28;20090;-67
2022/12/04 07:28:49;;;;;;;72.15;24.40;;;;;;;0.61;92.21;101705.06;5031730;28;20034;-67
2022/12/04 07:31:17;;;;;;;75.82;26.15;;;;;;;0.65;92.06;101714.78;5030420;28;20271;-67
2022/12/04 07:33:43;;;;;;;73.30;24.88;;;;;;;0.66;91.94;101718.25;5041567;28;20933;-67
2022/12/04 07:36:12;;;;;;;73.63;24.15;;;;;;;0.66;91.45;101705.41;5036194;28;20038;-67
2022/12/04 07:38:37;;;;;;;76.78;24.83;;;;;;;0.66;91.72;101706.28;5035043;28;20029;-67
2022/12/04 07:41:05;;;;;;;68.45;25.55;;;;;;;0.66;91.78;101711.44;5043377;28;20080;-67
2022/12/04 07:43:31;;;;;;;79.32;25.55;;;;;;;0.68;92.03;101709.91;5040056;28;21311;-67
2022/12/04 07:45:58;;;;;;;66.90;23.67;;;;;;;0.68;92.14;101709.91;5034194;28;20276;-67
2022/12/04 07:48:23;;;;;;;73.25;24.00;;;;;;;0.72;92.22;101711.00;5042471;28;20029;-67
2022/12/04 07:50:49;;;;;;;70.40;23.98;;;;;;;0.73;92.17;101711.94;5033375;28;20072;-67
2022/12/04 07:53:14;;;;;;;76.50;24.75;;;;;;;0.72;91.77;101718.69;5032318;28;20173;-67
2022/12/04 07:55:40;;;;;;;73.75;24.17;;;;;;;0.72;91.78;101711.00;5030730;28;20085;-67
2022/12/04 07:58:05;;;;;;;65.47;22.88;;;;;;;0.72;91.34;101716.13;5037869;28;20029;-67
2022/12/04 08:00:30;;;;;;;65.07;24.55;;;;;;;0.70;91.17;101715.13;5030647;28;20068;-67
2022/12/04 08:02:56;;;;;;;63.78;22.92;;;;;;;0.70;92.23;101725.41;5031652;28;20037;-68
2022/12/04 08:05:21;;;;;;;67.70;24.30;;;;;;;0.71;91.36;101723.72;5038299;28;20025;-67
2022/12/04 08:07:47;;;;;;;65.63;22.35;;;;;;;0.72;92.19;101726.41;5041542;28;20049;-67
2022/12/04 08:10:12;;;;;;;73.30;23.50;;;;;;;0.73;91.69;101724.75;5039519;28;20049;-67
2022/12/04 08:12:37;;;;;;;65.65;22.98;;;;;;;0.72;92.12;101726.41;5042701;28;20025;-67
2022/12/04 08:15:04;;;;;;;74.45;24.15;;;;;;;0.74;91.18;101735.13;5040385;28;20029;-67
2022/12/04 08:17:29;;;;;;;70.43;23.08;;;;;;;0.72;91.85;101735.78;5043511;28;20048;-68
2022/12/04 08:19:54;;;;;;;63.05;22.00;;;;;;;0.69;91.54;101723.59;5032512;28;20033;-68
2022/12/04 08:22:20;;;;;;;66.85;22.27;;;;;;;0.69;91.56;101731.28;5050148;28;20026;-67
2022/12/04 08:24:45;;;;;;;65.13;22.73;;;;;;;0.68;91.80;101729.50;5029192;28;20284;-67
2022/12/04 08:27:11;;;;;;;65.80;21.63;;;;;;;0.67;92.15;101732.88;5022495;28;20042;-62
2022/12/04 08:29:36;;;;;;;59.67;21.35;;;;;;;0.66;92.08;101737.06;5025387;28;20273;-62
2022/12/04 08:32:01;;;;;;;65.15;21.52;;;;;;;0.66;91.41;101741.31;5028916;28;20279;-62
2022/12/04 08:34:27;;;;;;;64.55;21.60;;;;;;;0.66;91.80;101736.19;5027408;28;20098;-62
2022/12/04 08:36:52;;;;;;;62.00;21.50;;;;;;;0.68;92.20;101737.19;5039778;28;20025;-62
2022/12/04 08:39:17;;;;;;;58.38;21.42;;;;;;;0.70;92.10;101735.66;5023876;28;20264;-62
2022/12/04 08:41:42;;;;;;;56.05;20.13;;;;;;;0.73;92.28;101727.31;5024607;28;20053;-62
2022/12/04 08:44:08;;;;;;;59.67;21.65;;;;;;;0.74;91.39;101724.88;5033514;28;20037;-62
2022/12/04 08:46:33;;;;;;;57.58;21.52;;;;;;;0.74;91.84;101730.00;5029913;28;20053;-62
2022/12/04 08:48:58;;;;;;;55.17;20.23;;;;;;;0.74;91.63;101724.88;5029158;28;20181;-63
2022/12/04 08:51:27;;;;;;;54.85;19.95;;;;;;;0.75;91.35;101716.38;5011102;28;20045;-62
2022/12/04 08:53:55;;;;;;;56.75;20.02;;;;;;;0.77;91.89;101719.97;5030056;28;20276;-64
2022/12/04 08:56:20;;;;;;;62.63;21.65;;;;;;;0.81;91.88;101716.88;5036170;28;20320;-69
2022/12/04 08:58:46;;;;;;;52.25;19.45;;;;;;;0.81;91.66;101716.88;5039157;28;20041;-70
2022/12/04 09:01:13;;;;;;;57.65;21.02;;;;;;;0.83;91.16;101716.97;5040729;28;20033;-70
2022/12/04 09:03:39;;;;;;;52.55;19.45;;;;;;;0.84;91.22;101711.97;5037529;28;20071;-70
2022/12/04 09:06:05;;;;;;;60.20;20.95;;;;;;;0.86;91.36;101710.41;5037571;28;21231;-70
2022/12/04 09:08:31;;;;;;;52.03;19.50;;;;;;;0.90;91.51;101718.31;5038512;28;20037;-72
2022/12/04 09:11:05;;;;;;;55.85;20.08;;;;;;;0.91;90.96;101718.44;5040033;28;20108;-70
2022/12/04 09:13:30;;;;;;;57.67;20.83;;;;;;;0.92;92.03;101717.69;5048769;28;20045;-70
2022/12/04 09:15:56;;;;;;;54.80;19.38;;;;;;;0.95;90.28;101719.59;5031349;28;20041;-69
2022/12/04 09:18:21;;;;;;;56.05;19.35;;;;;;;0.96;90.33;101718.81;5035762;28;20137;-70
2022/12/04 09:20:57;;;;;;;57.55;20.15;;;;;;;0.97;91.15;101723.16;5036803;28;20029;-70
2022/12/04 09:23:24;;;;;;;55.88;20.70;;;;;;;1.00;91.02;101723.38;5025243;28;20056;-71
2022/12/04 09:25:49;;;;;;;57.22;20.77;;;;;;;1.01;90.92;101731.22;5032086;28;20463;-70
2022/12/04 09:28:14;;;;;;;54.72;19.67;;;;;;;1.04;90.94;101735.69;5027128;28;20049;-69
2022/12/04 09:30:40;;;;;;;53.97;19.92;;;;;;;1.02;90.47;101734.69;5011869;28;20014;-69
2022/12/04 09:33:05;;;;;;;52.28;18.98;;;;;;;1.02;90.45;101733.00;5029554;28;20041;-69
2022/12/04 09:35:30;;;;;;;54.55;19.95;;;;;;;1.04;90.97;101727.97;5033387;28;20048;-69
2022/12/04 09:37:56;;;;;;;57.45;20.63;;;;;;;1.07;90.98;101723.06;5028286;28;20275;-64
2022/12/04 09:40:33;;;;;;;53.85;19.75;;;;;;;1.10;91.14;101737.81;5026347;28;20180;-63
2022/12/04 09:43:06;;;;;;;58.17;19.70;;;;;;;1.11;90.97;101731.91;5029785;28;20283;-63
2022/12/04 09:45:43;;;;;;;52.30;18.88;;;;;;;1.13;91.52;101735.47;5036373;28;20049;-64
2022/12/04 09:48:10;;;;;;;50.78;18.48;;;;;;;1.13;90.52;101726.13;5041080;28;20045;-64
2022/12/04 09:50:41;;;;;;;47.80;17.60;;;;;;;1.12;89.57;101729.47;5040385;28;20033;-64
2022/12/04 09:53:28;;;;;;;45.83;16.52;;;;;;;1.12;90.05;101729.47;5035034;28;20018;-63
2022/12/04 09:55:56;;;;;;;52.10;16.77;;;;;;;1.11;90.08;101732.81;5041480;28;20045;-63
2022/12/04 09:58:31;;;;;;;46.95;17.23;;;;;;;1.08;89.32;101729.13;5038952;28;20053;-63
2022/12/04 10:00:59;;;;;;;51.92;17.50;;;;;;;1.05;89.37;101737.47;5035907;28;20089;-64
2022/12/04 10:03:29;;;;;;;45.55;17.15;;;;;;;1.03;89.24;101736.47;5035333;28;20335;-63
2022/12/04 10:06:00;;;;;;;;;;;;;;;1.06;90.05;101741.84;5030166;28;20022;-63
2022/12/04 10:08:48;;;;;;;44.47;16.05;;;;;;;1.00;89.80;101733.66;5039675;28;20059;-68
2022/12/04 10:11:22;;;;;;;42.45;16.42;;;;;;;0.95;89.52;101730.75;5031623;28;20268;-68
2022/12/04 10:14:02;;;;;;;44.13;16.48;;;;;;;0.94;89.67;101731.53;5024332;28;20314;-66
2022/12/04 10:16:40;;;;;;;44.00;15.73;;;;;;;0.93;89.44;101731.38;5030491;28;20097;-66
2022/12/04 10:19:24;;;;;;;44.72;16.45;;;;;;;0.93;89.68;101731.38;5038791;28;20029;-66
2022/12/04 10:22:09;;;;;;;45.28;16.25;;;;;;;0.92;89.46;101722.81;5036614;28;20264;-66
2022/12/04 10:24:42;;;;;;;41.92;15.82;;;;;;;0.93;89.52;101722.03;5041232;28;20223;-66
2022/12/04 10:27:24;;;;;;;45.38;17.77;;;;;;;0.93;89.95;101721.13;5039938;28;20030;-66
2022/12/04 10:30:01;;;;;;;46.38;18.13;;;;;;;0.93;89.01;101723.69;5036931;28;20042;-66
2022/12/04 10:32:30;;;;;;;46.80;17.15;;;;;;;0.91;88.56;101725.25;5029372;28;20235;-66
2022/12/04 10:35:07;;;;;;;47.22;18.17;;;;;;;0.90;89.78;101720.91;5036053;28;20052;-66
2022/12/04 10:37:38;;;;;;;50.10;18.17;;;;;;;0.90;89.85;101721.81;5032275;28;20022;-66
2022/12/04 10:40:20;;;;;;;44.05;17.38;;;;;;;0.88;89.74;101732.72;5041479;28;20052;-66
2022/12/04 10:42:56;;;;;;;49.28;18.05;;;;;;;0.88;90.36;101737.84;5030144;28;20191;-66
2022/12/04 10:45:22;;;;;;;45.47;17.92;;;;;;;0.91;89.72;101735.53;5040005;28;20234;-66
2022/12/04 10:47:50;;;;;;;43.42;17.42;;;;;;;0.91;89.70;101738.97;5036816;28;20034;-66
2022/12/04 10:50:23;;;;;;;50.13;17.38;;;;;;;0.89;89.49;101732.84;5039286;28;20100;-66
2022/12/04 10:52:50;;;;;;;44.42;16.70;;;;;;;0.90;89.83;101731.16;5040894;28;20037;-66
2022/12/04 10:55:37;;;;;;;47.75;18.48;;;;;;;0.89;89.65;101726.81;5042024;28;20036;-66
2022/12/04 10:58:02;;;;;;;47.75;19.40;;;;;;;0.88;90.31;101728.47;5041592;28;20028;-66
2022/12/04 11:00:33;;;;;;;44.40;17.45;;;;;;;0.88;89.74;101727.59;5037702;28;20014;-66
2022/12/04 11:03:01;;;;;;;48.60;18.15;;;;;;;0.84;90.00;101711.97;5034137;28;20021;-66
2022/12/04 11:05:54;;;;;;;45.00;17.15;;;;;;;0.82;90.12;101710.94;5039744;28;20280;-66
2022/12/04 11:08:23;;;;;;;44.47;17.58;;;;;;;0.84;90.00;101708.50;5036873;28;20241;-66
2022/12/04 11:10:58;;;;;;;46.65;17.48;;;;;;;0.81;89.41;101711.75;5034298;28;20026;-66
2022/12/04 11:13:23;;;;;;;47.80;18.08;;;;;;;0.81;89.67;101706.59;5034903;28;20035;-66
2022/12/04 11:15:51;;;;;;;50.60;19.17;;;;;;;0.81;90.67;101706.59;5037428;28;20228;-66
2022/12/04 11:18:38;;;;;;;49.40;17.95;;;;;;;0.84;90.11;101701.72;5040518;28;20105;-66
2022/12/04 11:21:13;;;;;;;40.47;16.80;;;;;;;0.87;91.01;101698.50;5019735;28;20291;-66
2022/12/04 11:23:44;;;;;;;48.72;17.88;;;;;;;0.89;90.15;101702.06;5037624;28;20022;-66
2022/12/04 11:26:11;;;;;;;43.45;17.33;;;;;;;0.90;90.55;101684.97;5034907;28;20040;-66
2022/12/04 11:28:39;;;;;;;44.92;17.33;;;;;;;0.90;90.24;101688.47;5031265;28;20029;-66
2022/12/04 11:31:06;;;;;;;46.70;18.90;;;;;;;0.91;90.08;101686.78;5041801;28;20071;-66
2022/12/04 11:33:46;;;;;;;48.85;19.25;;;;;;;0.90;90.41;101685.88;5041784;28;20032;-66
2022/12/04 11:36:26;;;;;;;47.60;18.02;;;;;;;0.89;90.27;101691.78;5041895;28;20033;-66
2022/12/04 11:39:02;;;;;;;45.15;16.88;;;;;;;0.86;89.98;101678.72;5041166;28;20028;-66
2022/12/04 11:41:30;;;;;;;43.78;17.20;;;;;;;0.84;90.65;101686.31;5032239;28;20116;-66
2022/12/04 11:43:56;;;;;;;43.78;17.83;;;;;;;0.85;90.97;101688.13;5045597;28;20045;-66